New Milford, Connecticut
Current Conditions -  °F | °C
As of 9:53 AM on Thursday 18 Dec 2014 (Local Time) from KDXR Reporting Station
Broken Clouds Broken Clouds  
Wind Chill: 29°   Ceiling: 4100
Heat Index: 37°   Visibility: 10mi
Dew Point: 21°   Wind: 12mph
Humidity: 52%   Direction: 280°W
Pressure: 29.94"   Gusts: 23mph
Location:  41.58°N, 73.41°W
Report Text: KDXR 181453Z 28010G20KT 10SM BKN041 03/M06 A2994 RMK AO2 SLP141 T00281061 53016
Loading
Personal Weather Stations






























Interactive Weather Map New forecast layout! Learn more

10-Day Weather Forecast

Advertisements
Track Severe Weather on mobile